Time;durP1;ratioP1;P1;durP2;ratioP2;P2;SDS_P1;SDS_P2;PMS_P1;PMS_P2;Temp;Humidity;BMP_temperature;BMP_pressure;BME280_temperature;BME280_humidity;BME280_pressure;Samples;Min_cycle;Max_cycle;Signal;HPM_P1;HPM_P2
2023/08/01 00:01:08;;;;;;;;;;;17.60;90.70;;;;;;5114506;28;19953;-28
2023/08/01 00:03:34;;;;;;;;;;;17.60;90.70;;;;;;5114271;28;19912;-28
2023/08/01 00:05:59;;;;;;;;;;;17.50;90.70;;;;;;5114133;28;19915;-29
2023/08/01 00:08:24;;;;;;;;;;;17.50;91.00;;;;;;5114046;28;19912;-29
2023/08/01 00:10:50;;;;;;;;;;;17.50;90.70;;;;;;5114250;28;19907;-28
2023/08/01 00:13:15;;;;;;;;;;;17.50;90.70;;;;;;5114133;28;19923;-36
2023/08/01 00:15:41;;;;;;;;;;;17.50;90.80;;;;;;5114145;28;19947;-30
2023/08/01 00:18:06;;;;;;;;;;;17.40;90.70;;;;;;5114198;28;19951;-27
2023/08/01 00:20:32;;;;;;;;;;;17.40;90.80;;;;;;5114009;28;20128;-29
2023/08/01 00:22:57;;;;;;;;;;;17.40;90.80;;;;;;5114269;28;19983;-33
2023/08/01 00:25:23;;;;;;;;;;;17.40;90.80;;;;;;5113846;28;20427;-27
2023/08/01 00:27:48;;;;;;;;;;;17.30;90.70;;;;;;5113862;28;20295;-27
2023/08/01 00:30:14;;;;;;;;;;;17.30;90.80;;;;;;5113940;28;19908;-27
2023/08/01 00:32:39;;;;;;;;;;;17.30;90.80;;;;;;5113695;28;19964;-27
2023/08/01 00:35:05;;;;;;;;;;;17.20;90.80;;;;;;5113860;28;19935;-28
2023/08/01 00:37:30;;;;;;;;;;;17.20;90.80;;;;;;5113706;28;20006;-25
2023/08/01 00:39:56;;;;;;;;;;;17.20;90.80;;;;;;5113598;28;20019;-28
2023/08/01 00:42:21;;;;;;;;;;;17.20;90.80;;;;;;5113655;28;19908;-28
2023/08/01 00:44:48;;;;;;;;;;;17.10;90.80;;;;;;5113668;28;19998;-27
2023/08/01 00:47:14;;;;;;;;;;;17.10;90.80;;;;;;5095200;28;19908;-29
2023/08/01 00:49:39;;;;;;;;;;;17.10;90.80;;;;;;5095140;28;20348;-28
2023/08/01 00:52:06;;;;;;;;;;;17.10;90.80;;;;;;5113439;28;19951;-31
2023/08/01 00:54:35;;;;;;;;;;;17.10;90.80;;;;;;5113476;28;20436;-28
2023/08/01 00:57:04;;;;;;;;;;;17.00;90.80;;;;;;5113168;28;19908;-29
2023/08/01 00:59:29;;;;;;;;;;;17.10;90.80;;;;;;5113196;28;19908;-28
2023/08/01 01:01:55;;;;;;;;;;;17.00;90.80;;;;;;5113312;28;19912;-28
2023/08/01 01:04:21;;;;;;;;;;;17.10;90.80;;;;;;5113200;28;19978;-33
2023/08/01 01:06:51;;;;;;;;;;;17.10;90.80;;;;;;5113101;28;20003;-29
2023/08/01 01:09:17;;;;;;;;;;;17.10;90.80;;;;;;5113123;28;20429;-28
2023/08/01 01:11:43;;;;;;;;;;;17.10;90.80;;;;;;5113000;28;19916;-29
2023/08/01 01:14:09;;;;;;;;;;;17.10;90.80;;;;;;5094837;28;19956;-29
2023/08/01 01:16:34;;;;;;;;;;;17.10;90.70;;;;;;5113004;28;20448;-29
2023/08/01 01:18:59;;;;;;;;;;;17.10;91.00;;;;;;5112153;28;19908;-29
2023/08/01 01:21:25;;;;;;;;;;;17.10;90.70;;;;;;5112916;28;19918;-49
2023/08/01 01:23:51;;;;;;;;;;;17.00;90.70;;;;;;5113265;28;19908;-28
2023/08/01 01:26:20;;;;;;;;;;;17.00;90.70;;;;;;5113222;28;19953;-28
2023/08/01 01:28:46;;;;;;;;;;;17.00;90.80;;;;;;5113133;28;19941;-29
2023/08/01 01:31:12;;;;;;;;;;;17.10;90.80;;;;;;5112794;28;19908;-29
2023/08/01 01:33:38;;;;;;;;;;;17.10;90.80;;;;;;5113120;28;20428;-30
2023/08/01 01:36:03;;;;;;;;;;;17.00;90.70;;;;;;5113071;28;19914;-29
2023/08/01 01:38:29;;;;;;;;;;;17.00;90.70;;;;;;5113092;28;19907;-30
2023/08/01 01:40:54;;;;;;;;;;;17.00;90.80;;;;;;5112781;28;19937;-28
2023/08/01 01:43:20;;;;;;;;;;;16.90;90.80;;;;;;5112650;28;19907;-28
2023/08/01 01:45:45;;;;;;;;;;;16.90;90.80;;;;;;5112699;28;19907;-30
2023/08/01 01:48:11;;;;;;;;;;;16.90;90.80;;;;;;5112782;28;19999;-31
2023/08/01 01:50:36;;;;;;;;;;;16.90;90.80;;;;;;5112626;28;19908;-29
2023/08/01 01:53:02;;;;;;;;;;;16.90;90.80;;;;;;5112587;28;19918;-27
2023/08/01 01:55:27;;;;;;;;;;;16.80;90.80;;;;;;5112873;28;19912;-27
2023/08/01 01:57:53;;;;;;;;;;;16.80;90.80;;;;;;5112629;28;19945;-28
2023/08/01 02:00:18;;;;;;;;;;;16.80;90.80;;;;;;5112640;28;19956;-29
2023/08/01 02:02:44;;;;;;;;;;;16.80;90.90;;;;;;5112465;28;20382;-28
2023/08/01 02:05:09;;;;;;;;;;;16.70;90.90;;;;;;5112243;28;19916;-29
2023/08/01 02:07:34;;;;;;;;;;;16.70;90.90;;;;;;5112434;28;19916;-28
2023/08/01 02:10:02;;;;;;;;;;;16.60;91.20;;;;;;5111743;28;20133;-29
2023/08/01 02:12:31;;;;;;;;;;;16.60;91.00;;;;;;5112334;28;20006;-29
2023/08/01 02:14:57;;;;;;;;;;;16.60;91.00;;;;;;5112325;28;19957;-30
2023/08/01 02:17:22;;;;;;;;;;;16.60;91.00;;;;;;5112373;28;19912;-31
2023/08/01 02:19:48;;;;;;;;;;;16.60;91.00;;;;;;5112397;28;20355;-27
2023/08/01 02:22:13;;;;;;;;;;;16.50;91.00;;;;;;5112402;28;20272;-28
2023/08/01 02:24:38;;;;;;;;;;;16.50;91.30;;;;;;5112567;28;20026;-27
2023/08/01 02:27:04;;;;;;;;;;;16.50;91.10;;;;;;5112269;28;19953;-29
2023/08/01 02:29:30;;;;;;;;;;;16.40;91.10;;;;;;5112614;28;20002;-28
2023/08/01 02:31:56;;;;;;;;;;;16.40;91.10;;;;;;5116716;28;19987;-28
2023/08/01 02:34:21;;;;;;;;;;;16.40;91.10;;;;;;5116032;28;19915;-29
2023/08/01 02:36:47;;;;;;;;;;;16.40;91.10;;;;;;5116336;28;19915;-28
2023/08/01 02:39:12;;;;;;;;;;;16.40;91.20;;;;;;5116081;28;19958;-28
2023/08/01 02:41:38;;;;;;;;;;;16.40;91.20;;;;;;5116054;28;20402;-27
2023/08/01 02:44:03;;;;;;;;;;;16.30;91.20;;;;;;5115974;28;19908;-28
2023/08/01 02:46:29;;;;;;;;;;;16.30;91.20;;;;;;5116257;28;19908;-27
2023/08/01 02:48:55;;;;;;;;;;;16.30;91.20;;;;;;5116110;28;19908;-28
2023/08/01 02:51:20;;;;;;;;;;;16.30;91.20;;;;;;5116036;28;19956;-27
2023/08/01 02:53:46;;;;;;;;;;;16.30;91.20;;;;;;5115825;28;20442;-29
2023/08/01 02:56:11;;;;;;;;;;;16.30;91.20;;;;;;5115724;28;20006;-28
2023/08/01 02:58:37;;;;;;;;;;;16.30;91.30;;;;;;5115638;28;19912;-27
2023/08/01 03:01:13;;;;;;;;;;;16.30;91.20;;;;;;5115731;28;19965;-35
2023/08/01 03:03:39;;;;;;;;;;;16.30;91.30;;;;;;5115379;28;19907;-28
2023/08/01 03:06:04;;;;;;;;;;;16.30;91.20;;;;;;5115837;28;19935;-27
2023/08/01 03:08:30;;;;;;;;;;;16.30;91.20;;;;;;5115905;28;19943;-33
2023/08/01 03:10:55;;;;;;;;;;;16.30;91.10;;;;;;5115414;28;19922;-30
2023/08/01 03:13:21;;;;;;;;;;;16.30;91.10;;;;;;5115445;28;19923;-27
2023/08/01 03:15:46;;;;;;;;;;;16.30;91.10;;;;;;5115736;28;19998;-27
2023/08/01 03:18:12;;;;;;;;;;;16.30;91.10;;;;;;5115415;28;19956;-27
2023/08/01 03:20:37;;;;;;;;;;;16.30;91.10;;;;;;5115243;28;19912;-27
2023/08/01 03:23:03;;;;;;;;;;;16.40;91.10;;;;;;5115305;28;19912;-34
2023/08/01 03:25:29;;;;;;;;;;;16.30;91.10;;;;;;5115248;28;19912;-27
2023/08/01 03:27:54;;;;;;;;;;;16.40;91.20;;;;;;5115018;28;19912;-33
2023/08/01 03:30:20;;;;;;;;;;;16.30;91.20;;;;;;5115061;28;20022;-27
2023/08/01 03:32:46;;;;;;;;;;;16.30;91.10;;;;;;5114962;28;19920;-29
2023/08/01 03:35:13;;;;;;;;;;;16.30;91.10;;;;;;5115019;28;19912;-27
2023/08/01 03:37:39;;;;;;;;;;;16.30;91.20;;;;;;5115250;28;19918;-27
2023/08/01 03:40:08;;;;;;;;;;;16.30;91.20;;;;;;5115001;28;20403;-27
2023/08/01 03:42:34;;;;;;;;;;;16.40;91.20;;;;;;5114070;28;19912;-29
2023/08/01 03:45:00;;;;;;;;;;;16.40;91.20;;;;;;5114842;28;19918;-27
2023/08/01 03:47:25;;;;;;;;;;;16.40;91.50;;;;;;5114824;28;20289;-28
2023/08/01 03:49:51;;;;;;;;;;;16.40;91.20;;;;;;5114873;28;20407;-30
2023/08/01 03:52:16;;;;;;;;;;;16.50;91.10;;;;;;5114984;28;19915;-28
2023/08/01 03:54:42;;;;;;;;;;;16.50;91.10;;;;;;5114790;28;19960;-29
2023/08/01 03:57:07;;;;;;;;;;;16.50;91.10;;;;;;5114658;28;19911;-26
2023/08/01 03:59:32;;;;;;;;;;;16.60;91.20;;;;;;5114522;28;20005;-28
2023/08/01 04:01:58;;;;;;;;;;;16.50;91.10;;;;;;5114519;28;20272;-28
2023/08/01 04:04:24;;;;;;;;;;;16.60;91.10;;;;;;5114300;28;19919;-33
2023/08/01 04:06:49;;;;;;;;;;;16.60;91.10;;;;;;5114346;28;19919;-27
2023/08/01 04:09:14;;;;;;;;;;;16.60;91.10;;;;;;5114060;28;19919;-31
2023/08/01 04:11:40;;;;;;;;;;;16.60;91.10;;;;;;5114729;28;19916;-28
2023/08/01 04:14:05;;;;;;;;;;;16.60;91.10;;;;;;5114329;28;20386;-30
2023/08/01 04:16:31;;;;;;;;;;;16.60;91.10;;;;;;5114323;28;20007;-29
2023/08/01 04:18:56;;;;;;;;;;;16.70;91.50;;;;;;5114508;28;19912;-28
2023/08/01 04:21:22;;;;;;;;;;;16.70;91.10;;;;;;5114163;28;19976;-30
2023/08/01 04:23:47;;;;;;;;;;;16.60;91.20;;;;;;5095885;28;20363;-28
2023/08/01 04:26:13;;;;;;;;;;;16.70;91.20;;;;;;5114096;28;19919;-31
2023/08/01 04:28:38;;;;;;;;;;;16.70;91.20;;;;;;5113903;28;20350;-31
2023/08/01 04:31:04;;;;;;;;;;;16.70;91.20;;;;;;5113975;28;19912;-27
2023/08/01 04:33:29;;;;;;;;;;;16.70;91.20;;;;;;5113884;28;20283;-28
2023/08/01 04:35:55;;;;;;;;;;;16.70;91.20;;;;;;5113757;28;19923;-28
2023/08/01 04:38:20;;;;;;;;;;;16.70;91.20;;;;;;5114126;28;19919;-30
2023/08/01 04:40:46;;;;;;;;;;;16.70;91.10;;;;;;5095418;28;19912;-29
2023/08/01 04:43:12;;;;;;;;;;;16.70;91.20;;;;;;5113867;28;19934;-42
2023/08/01 04:45:37;;;;;;;;;;;16.70;91.10;;;;;;5113597;28;19919;-32
2023/08/01 04:48:03;;;;;;;;;;;16.70;91.10;;;;;;5113570;28;19951;-29
2023/08/01 04:50:28;;;;;;;;;;;16.70;91.20;;;;;;5113916;28;19912;-28
2023/08/01 04:52:54;;;;;;;;;;;16.70;91.20;;;;;;5113661;28;19915;-28
2023/08/01 04:55:19;;;;;;;;;;;16.70;91.20;;;;;;5113556;28;19926;-30
2023/08/01 04:57:45;;;;;;;;;;;16.70;91.30;;;;;;5113514;28;19922;-30
2023/08/01 05:00:11;;;;;;;;;;;16.70;91.30;;;;;;5113504;28;20010;-28
2023/08/01 05:02:37;;;;;;;;;;;16.70;91.20;;;;;;5113278;28;19912;-28
2023/08/01 05:05:03;;;;;;;;;;;16.70;91.20;;;;;;5113244;28;19970;-34
2023/08/01 05:07:29;;;;;;;;;;;16.70;91.20;;;;;;5113199;28;19915;-30
2023/08/01 05:09:54;;;;;;;;;;;16.70;91.20;;;;;;5113142;28;20272;-29
2023/08/01 05:12:20;;;;;;;;;;;16.70;91.50;;;;;;5113333;28;19916;-29
2023/08/01 05:14:45;;;;;;;;;;;16.80;91.30;;;;;;5113073;28;19995;-28
2023/08/01 05:17:11;;;;;;;;;;;16.70;91.20;;;;;;5113004;28;20367;-28
2023/08/01 05:19:36;;;;;;;;;;;16.70;91.20;;;;;;5112870;28;19919;-30
2023/08/01 05:22:02;;;;;;;;;;;16.70;91.20;;;;;;5113060;28;19912;-30
2023/08/01 05:24:27;;;;;;;;;;;16.70;91.20;;;;;;5112947;28;19999;-28
2023/08/01 05:26:53;;;;;;;;;;;16.80;91.20;;;;;;5112918;28;19918;-28
2023/08/01 05:29:18;;;;;;;;;;;16.80;91.20;;;;;;5112906;28;19911;-28
2023/08/01 05:31:44;;;;;;;;;;;16.80;91.20;;;;;;5094576;28;20394;-31
2023/08/01 05:34:09;;;;;;;;;;;16.90;91.20;;;;;;5113085;28;19947;-28
2023/08/01 05:36:35;;;;;;;;;;;16.90;91.10;;;;;;5112739;28;19912;-28
2023/08/01 05:39:00;;;;;;;;;;;16.90;91.10;;;;;;5112725;28;20291;-32
2023/08/01 05:41:26;;;;;;;;;;;16.90;91.10;;;;;;5112773;28;20290;-29
2023/08/01 05:43:51;;;;;;;;;;;17.00;91.10;;;;;;5112685;28;19912;-33
2023/08/01 05:46:17;;;;;;;;;;;17.00;91.10;;;;;;5112789;28;19912;-33
2023/08/01 05:48:42;;;;;;;;;;;17.10;91.10;;;;;;5112633;28;19912;-29
2023/08/01 05:51:08;;;;;;;;;;;17.10;91.00;;;;;;5112409;28;19947;-28
2023/08/01 05:53:33;;;;;;;;;;;17.20;91.00;;;;;;5112512;28;20005;-29
2023/08/01 05:55:59;;;;;;;;;;;17.20;90.90;;;;;;5112550;28;20335;-30
2023/08/01 05:58:24;;;;;;;;;;;17.10;90.90;;;;;;5112611;28;19916;-27
2023/08/01 06:00:50;;;;;;;;;;;17.20;91.00;;;;;;5112491;28;20328;-27
2023/08/01 06:03:16;;;;;;;;;;;17.30;91.00;;;;;;5112362;28;20018;-29
2023/08/01 06:05:41;;;;;;;;;;;17.40;90.90;;;;;;5114994;28;20429;-28
2023/08/01 06:08:08;;;;;;;;;;;17.40;90.80;;;;;;5116735;28;19912;-29
2023/08/01 06:10:33;;;;;;;;;;;17.50;90.80;;;;;;5116616;28;19912;-27
2023/08/01 06:12:59;;;;;;;;;;;17.50;90.70;;;;;;5116402;28;20022;-27
2023/08/01 06:15:24;;;;;;;;;;;17.40;90.70;;;;;;5116587;28;19919;-28
2023/08/01 06:17:50;;;;;;;;;;;17.40;90.70;;;;;;5116605;28;19912;-28
2023/08/01 06:20:15;;;;;;;;;;;17.40;90.70;;;;;;5116323;28;19916;-29
2023/08/01 06:22:42;;;;;;;;;;;17.40;90.70;;;;;;5116423;28;20359;-28
2023/08/01 06:25:08;;;;;;;;;;;17.30;90.70;;;;;;5116377;28;19912;-29
2023/08/01 06:27:33;;;;;;;;;;;17.30;90.70;;;;;;5116628;28;20286;-29
2023/08/01 06:29:58;;;;;;;;;;;17.30;90.70;;;;;;5116293;28;20395;-28
2023/08/01 06:32:24;;;;;;;;;;;17.40;90.80;;;;;;5116383;28;20028;-32
2023/08/01 06:34:49;;;;;;;;;;;17.40;90.70;;;;;;5116014;28;19967;-27
2023/08/01 06:37:15;;;;;;;;;;;17.30;90.70;;;;;;5116183;28;20010;-32
2023/08/01 06:39:40;;;;;;;;;;;17.30;90.70;;;;;;5116168;28;19973;-29
2023/08/01 06:42:06;;;;;;;;;;;17.30;90.70;;;;;;5116193;28;19912;-26
2023/08/01 06:44:31;;;;;;;;;;;17.30;90.70;;;;;;5116020;28;20371;-27
2023/08/01 06:46:57;;;;;;;;;;;17.40;90.70;;;;;;5115952;28;20296;-30
2023/08/01 06:49:22;;;;;;;;;;;17.50;90.60;;;;;;5115938;28;19912;-28
2023/08/01 06:51:48;;;;;;;;;;;17.50;90.60;;;;;;5115734;28;19920;-31
2023/08/01 06:54:13;;;;;;;;;;;17.60;90.60;;;;;;5115884;28;19978;-28
2023/08/01 06:56:39;;;;;;;;;;;17.70;90.50;;;;;;5115745;28;20437;-28
2023/08/01 06:59:04;;;;;;;;;;;17.70;90.40;;;;;;5115755;28;19912;-29
2023/08/01 07:01:30;;;;;;;;;;;17.80;90.40;;;;;;5115771;28;20410;-28
2023/08/01 07:03:56;;;;;;;;;;;17.80;90.40;;;;;;5115418;28;19923;-28
2023/08/01 07:06:23;;;;;;;;;;;17.80;90.40;;;;;;5097310;28;19956;-29
2023/08/01 07:08:48;;;;;;;;;;;17.90;90.20;;;;;;5115657;28;19912;-30
2023/08/01 07:11:14;;;;;;;;;;;17.90;90.20;;;;;;5115550;28;19936;-30
2023/08/01 07:13:39;;;;;;;;;;;18.00;90.30;;;;;;5115325;28;19998;-28
2023/08/01 07:16:05;;;;;;;;;;;18.00;90.30;;;;;;5114445;28;19923;-29
2023/08/01 07:18:30;;;;;;;;;;;18.00;90.20;;;;;;5115161;28;20428;-29
2023/08/01 07:21:02;;;;;;;;;;;18.00;90.10;;;;;;5115232;28;19919;-29
2023/08/01 07:23:28;;;;;;;;;;;18.10;90.10;;;;;;5115303;28;19919;-29
2023/08/01 07:25:54;;;;;;;;;;;18.10;90.10;;;;;;5115223;28;19912;-31
2023/08/01 07:28:19;;;;;;;;;;;18.20;90.00;;;;;;5115154;28;20355;-30
2023/08/01 07:30:44;;;;;;;;;;;18.20;89.90;;;;;;5115150;28;19915;-27
2023/08/01 07:33:10;;;;;;;;;;;18.20;89.90;;;;;;5115260;28;19916;-28
2023/08/01 07:35:35;;;;;;;;;;;18.20;89.80;;;;;;5114843;28;20495;-32
2023/08/01 07:38:01;;;;;;;;;;;18.30;89.90;;;;;;5114974;28;19943;-29
2023/08/01 07:40:26;;;;;;;;;;;18.30;89.40;;;;;;5114892;28;19915;-32
2023/08/01 07:42:52;;;;;;;;;;;18.30;88.90;;;;;;5114800;28;19935;-32
2023/08/01 07:45:18;;;;;;;;;;;18.30;88.80;;;;;;5096399;28;19912;-29
2023/08/01 07:47:44;;;;;;;;;;;18.40;89.00;;;;;;5114773;28;20336;-28
2023/08/01 07:50:09;;;;;;;;;;;18.40;88.60;;;;;;5113713;28;20187;-29
2023/08/01 07:52:35;;;;;;;;;;;18.40;88.30;;;;;;5113772;28;19926;-29
2023/08/01 07:55:00;;;;;;;;;;;18.40;88.10;;;;;;5114496;28;19950;-28
2023/08/01 07:57:25;;;;;;;;;;;18.40;87.80;;;;;;5096317;28;19912;-28
2023/08/01 07:59:51;;;;;;;;;;;18.40;87.70;;;;;;5114498;28;20390;-28
2023/08/01 08:02:16;;;;;;;;;;;18.50;87.60;;;;;;5114565;28;19912;-31
2023/08/01 08:04:42;;;;;;;;;;;18.60;87.60;;;;;;5114225;28;19969;-28
2023/08/01 08:07:07;;;;;;;;;;;18.60;87.20;;;;;;5114679;28;19941;-27
2023/08/01 08:09:33;;;;;;;;;;;18.70;86.80;;;;;;5114347;28;19912;-28
2023/08/01 08:11:58;;;;;;;;;;;18.80;86.30;;;;;;5114242;28;19963;-28
2023/08/01 08:14:24;;;;;;;;;;;18.80;86.30;;;;;;5114345;28;19911;-30
2023/08/01 08:16:50;;;;;;;;;;;18.90;85.70;;;;;;5114149;28;19941;-28
2023/08/01 08:19:15;;;;;;;;;;;18.90;86.10;;;;;;5114233;28;20410;-34
2023/08/01 08:21:41;;;;;;;;;;;18.90;86.50;;;;;;5114116;28;19912;-28
2023/08/01 08:24:06;;;;;;;;;;;18.80;86.10;;;;;;5114090;28;20344;-32
2023/08/01 08:26:37;;;;;;;;;;;18.60;86.40;;;;;;5114112;28;19912;-28
2023/08/01 08:29:02;;;;;;;;;;;18.40;87.00;;;;;;5095300;28;19912;-28
2023/08/01 08:31:28;;;;;;;;;;;18.10;87.40;;;;;;5113961;28;20375;-28
2023/08/01 08:33:53;;;;;;;;;;;18.00;87.90;;;;;;5113907;28;19919;-31
2023/08/01 08:36:19;;;;;;;;;;;17.80;88.20;;;;;;5113791;28;20407;-27
2023/08/01 08:38:44;;;;;;;;;;;17.80;88.60;;;;;;5114162;28;19911;-27
2023/08/01 08:41:11;;;;;;;;;;;17.70;88.70;;;;;;5113848;28;19912;-30
2023/08/01 08:43:36;;;;;;;;;;;17.80;88.90;;;;;;5113644;28;20002;-28
2023/08/01 08:46:03;;;;;;;;;;;17.80;88.90;;;;;;5113748;28;20400;-30
2023/08/01 08:48:28;;;;;;;;;;;17.90;89.00;;;;;;5113579;28;19919;-30
2023/08/01 08:50:56;;;;;;;;;;;18.00;88.90;;;;;;5113725;28;19912;-29
2023/08/01 08:53:22;;;;;;;;;;;18.10;88.80;;;;;;5113469;28;19916;-28
2023/08/01 08:55:48;;;;;;;;;;;18.30;88.40;;;;;;5113706;28;20286;-27
2023/08/01 08:58:13;;;;;;;;;;;18.50;88.00;;;;;;5113523;28;20336;-27
2023/08/01 09:00:39;;;;;;;;;;;18.50;87.40;;;;;;5113327;28;20014;-28
2023/08/01 09:03:05;;;;;;;;;;;18.60;87.50;;;;;;5113633;28;20002;-27
2023/08/01 09:05:34;;;;;;;;;;;18.70;87.50;;;;;;5094902;28;19926;-28
2023/08/01 09:08:01;;;;;;;;;;;18.80;87.10;;;;;;5113454;28;20371;-33
2023/08/01 09:10:26;;;;;;;;;;;18.80;86.60;;;;;;5113380;28;19918;-28
2023/08/01 09:12:52;;;;;;;;;;;18.80;86.10;;;;;;5113264;28;20286;-27
2023/08/01 09:15:17;;;;;;;;;;;18.80;86.40;;;;;;5113108;28;19911;-27
2023/08/01 09:17:50;;;;;;;;;;;18.90;86.00;;;;;;5113094;28;19956;-27
2023/08/01 09:20:15;;;;;;;;;;;19.00;85.50;;;;;;5113365;28;20371;-29
2023/08/01 09:22:41;;;;;;;;;;;19.10;86.00;;;;;;5112943;28;20041;-27
2023/08/01 09:25:07;;;;;;;;;;;19.20;85.70;;;;;;5113059;28;19960;-35
2023/08/01 09:27:33;;;;;;;;;;;19.30;84.70;;;;;;5113371;28;20370;-27
2023/08/01 09:30:07;;;;;;;;;;;19.30;84.70;;;;;;5112873;28;20042;-29
2023/08/01 09:32:33;;;;;;;;;;;19.40;84.30;;;;;;5112323;28;19923;-28
2023/08/01 09:35:00;;;;;;;;;;;19.50;84.30;;;;;;5112873;28;19930;-27
2023/08/01 09:37:25;;;;;;;;;;;19.50;82.50;;;;;;5112703;28;19923;-27
2023/08/01 09:39:55;;;;;;;;;;;19.50;83.00;;;;;;5112325;28;20298;-27
2023/08/01 09:42:20;;;;;;;;;;;19.50;81.40;;;;;;5112947;28;20376;-28
2023/08/01 09:44:48;;;;;;;;;;;19.40;82.20;;;;;;5112695;28;19919;-27
2023/08/01 09:47:14;;;;;;;;;;;19.30;80.70;;;;;;5112699;28;19919;-27
2023/08/01 09:49:47;;;;;;;;;;;19.30;81.40;;;;;;5112831;28;19912;-28
2023/08/01 09:52:13;;;;;;;;;;;19.30;80.80;;;;;;5112483;28;19915;-31
2023/08/01 09:54:38;;;;;;;;;;;19.30;81.10;;;;;;5112918;28;20070;-27
2023/08/01 09:57:06;;;;;;;;;;;19.30;81.50;;;;;;5112450;28;19919;-28
2023/08/01 09:59:32;;;;;;;;;;;19.40;81.70;;;;;;5112772;28;19919;-27
2023/08/01 10:01:59;;;;;;;;;;;19.40;81.00;;;;;;5112486;28;19912;-27
2023/08/01 10:04:29;;;;;;;;;;;19.50;81.50;;;;;;5112296;28;20418;-28
2023/08/01 10:06:58;;;;;;;;;;;19.50;80.70;;;;;;5112314;28;20390;-27
2023/08/01 10:09:24;;;;;;;;;;;19.60;80.10;;;;;;5112597;28;20321;-27
2023/08/01 10:11:51;;;;;;;;;;;19.60;79.40;;;;;;5112445;28;19915;-30
2023/08/01 10:14:17;;;;;;;;;;;19.70;79.80;;;;;;5112360;28;19947;-30
2023/08/01 10:16:43;;;;;;;;;;;19.70;78.80;;;;;;5112422;28;20371;-29
2023/08/01 10:19:09;;;;;;;;;;;19.70;77.90;;;;;;5112603;28;19912;-29
2023/08/01 10:21:35;;;;;;;;;;;19.80;78.60;;;;;;5112542;28;19929;-28
2023/08/01 10:24:01;;;;;;;;;;;19.90;78.70;;;;;;5112397;28;19918;-28
2023/08/01 10:26:26;;;;;;;;;;;20.00;78.00;;;;;;5112427;28;19912;-28
2023/08/01 10:28:52;;;;;;;;;;;20.10;77.50;;;;;;5094247;28;19915;-28
2023/08/01 10:31:18;;;;;;;;;;;20.20;77.50;;;;;;5112157;28;20601;-28
2023/08/01 10:33:45;;;;;;;;;;;20.30;76.30;;;;;;5094019;28;19912;-28
2023/08/01 10:36:18;;;;;;;;;;;20.30;76.70;;;;;;5093917;28;19959;-30
2023/08/01 10:38:46;;;;;;;;;;;20.40;76.20;;;;;;5112517;28;19963;-30
2023/08/01 10:41:30;;;;;;;;;;;20.40;75.90;;;;;;5112290;28;19912;-30
2023/08/01 10:44:05;;;;;;;;;;;20.40;75.70;;;;;;5112110;28;19923;-33
2023/08/01 10:46:50;;;;;;;;;;;20.50;75.00;;;;;;5112434;28;19908;-33
2023/08/01 10:49:16;;;;;;;;;;;20.60;74.30;;;;;;5093762;28;19918;-28
2023/08/01 10:51:42;;;;;;;;;;;20.60;73.30;;;;;;5114386;28;19996;-30
2023/08/01 10:54:17;;;;;;;;;;;20.70;73.70;;;;;;5116171;28;19972;-30
2023/08/01 10:56:44;;;;;;;;;;;20.70;74.50;;;;;;5115739;28;19908;-27
2023/08/01 10:59:10;;;;;;;;;;;20.80;74.40;;;;;;5115605;28;19939;-28
2023/08/01 11:01:43;;;;;;;;;;;20.90;73.50;;;;;;5115666;28;19943;-28
2023/08/01 11:04:15;;;;;;;;;;;20.80;73.30;;;;;;5115436;28;19942;-29
2023/08/01 11:06:45;;;;;;;;;;;20.80;73.40;;;;;;5115825;28;19953;-27
2023/08/01 11:09:20;;;;;;;;;;;20.80;73.50;;;;;;5115724;28;20313;-30
2023/08/01 11:11:48;;;;;;;;;;;20.80;73.00;;;;;;5115404;28;19957;-28
2023/08/01 11:14:14;;;;;;;;;;;20.80;73.10;;;;;;5115434;28;19915;-28
2023/08/01 11:16:39;;;;;;;;;;;20.80;73.60;;;;;;5115438;28;19908;-29
2023/08/01 11:19:05;;;;;;;;;;;20.70;72.90;;;;;;5115793;28;19916;-36
2023/08/01 11:21:30;;;;;;;;;;;20.60;73.50;;;;;;5115269;28;19951;-32
2023/08/01 11:23:56;;;;;;;;;;;20.70;72.90;;;;;;5115937;28;19957;-31
2023/08/01 11:26:22;;;;;;;;;;;20.70;72.90;;;;;;5115291;28;19912;-33
2023/08/01 11:28:47;;;;;;;;;;;20.70;72.40;;;;;;5115533;28;19947;-32
2023/08/01 11:31:13;;;;;;;;;;;20.80;72.60;;;;;;5115538;28;19915;-31
2023/08/01 11:33:38;;;;;;;;;;;20.90;72.40;;;;;;5115172;28;19988;-36
2023/08/01 11:36:05;;;;;;;;;;;21.00;71.70;;;;;;5114941;28;19915;-28
2023/08/01 11:38:33;;;;;;;;;;;21.20;71.80;;;;;;5115236;28;19914;-31
2023/08/01 11:40:59;;;;;;;;;;;21.30;71.70;;;;;;5114880;28;19943;-28
2023/08/01 11:43:24;;;;;;;;;;;21.30;71.60;;;;;;5114965;28;20296;-28
2023/08/01 11:45:51;;;;;;;;;;;21.40;71.40;;;;;;5114841;28;19914;-29
2023/08/01 11:48:17;;;;;;;;;;;21.30;70.50;;;;;;5114735;28;19908;-29
2023/08/01 11:50:43;;;;;;;;;;;21.20;70.20;;;;;;5114736;28;20287;-27
2023/08/01 11:53:17;;;;;;;;;;;21.30;70.90;;;;;;5114981;28;19961;-27
2023/08/01 11:55:42;;;;;;;;;;;21.40;70.80;;;;;;5114765;28;19908;-30
2023/08/01 11:58:08;;;;;;;;;;;21.40;70.30;;;;;;5114722;28;19914;-29
2023/08/01 12:00:33;;;;;;;;;;;21.40;69.20;;;;;;5114493;28;19912;-27
2023/08/01 12:03:13;;;;;;;;;;;21.40;68.90;;;;;;5114096;28;19907;-28
2023/08/01 12:05:40;;;;;;;;;;;21.40;69.70;;;;;;5114351;28;19920;-28
2023/08/01 12:08:13;;;;;;;;;;;21.30;69.90;;;;;;5114745;28;19915;-37
2023/08/01 12:10:42;;;;;;;;;;;21.30;70.00;;;;;;5114406;28;19935;-34
2023/08/01 12:13:23;;;;;;;;;;;21.40;70.00;;;;;;5114491;28;19918;-29
2023/08/01 12:15:49;;;;;;;;;;;21.50;68.60;;;;;;5114491;28;19908;-27
2023/08/01 12:18:25;;;;;;;;;;;21.40;69.50;;;;;;5078978;28;20493;-27
2023/08/01 12:20:51;;;;;;;;;;;21.40;68.10;;;;;;5114449;28;20406;-28
2023/08/01 12:23:16;;;;;;;;;;;21.30;69.00;;;;;;5114729;28;19908;-27
2023/08/01 12:25:42;;;;;;;;;;;21.10;68.70;;;;;;5114268;28;20282;-28
2023/08/01 12:28:08;;;;;;;;;;;21.10;69.10;;;;;;5114367;28;19907;-27
2023/08/01 12:30:33;;;;;;;;;;;21.00;68.90;;;;;;5114232;28;19908;-29
2023/08/01 12:33:00;;;;;;;;;;;20.80;68.20;;;;;;5113841;28;20403;-27
2023/08/01 12:35:27;;;;;;;;;;;20.70;68.30;;;;;;5113817;28;19911;-27
2023/08/01 12:37:53;;;;;;;;;;;20.60;67.10;;;;;;5114015;28;19914;-28
2023/08/01 12:40:19;;;;;;;;;;;20.60;68.50;;;;;;5113728;28;19943;-28
2023/08/01 12:42:44;;;;;;;;;;;20.50;68.90;;;;;;5113799;28;20008;-31
2023/08/01 12:45:10;;;;;;;;;;;20.50;69.30;;;;;;5113750;28;20261;-29
2023/08/01 12:47:35;;;;;;;;;;;20.50;69.60;;;;;;5113652;28;19919;-30
2023/08/01 12:50:01;;;;;;;;;;;20.50;70.00;;;;;;5113580;28;20422;-31
2023/08/01 12:52:26;;;;;;;;;;;20.60;70.10;;;;;;5113747;28;19955;-26
2023/08/01 12:54:52;;;;;;;;;;;20.60;69.30;;;;;;5113790;28;20355;-29
2023/08/01 12:57:17;;;;;;;;;;;20.60;69.40;;;;;;5113505;28;20362;-29
2023/08/01 12:59:43;;;;;;;;;;;20.50;69.90;;;;;;5113257;28;20371;-29
2023/08/01 13:02:09;;;;;;;;;;;20.60;69.90;;;;;;5113396;28;19994;-31
2023/08/01 13:04:34;;;;;;;;;;;20.80;69.80;;;;;;5113342;28;19931;-28
2023/08/01 13:07:00;;;;;;;;;;;20.90;69.70;;;;;;5113363;28;20389;-28
2023/08/01 13:09:25;;;;;;;;;;;21.00;69.40;;;;;;5113246;28;19966;-27
2023/08/01 13:11:51;;;;;;;;;;;21.20;68.70;;;;;;5113138;28;19919;-27
2023/08/01 13:14:16;;;;;;;;;;;21.20;67.70;;;;;;5112226;28;19908;-26
2023/08/01 13:16:42;;;;;;;;;;;21.20;66.70;;;;;;5094773;28;19958;-34
2023/08/01 13:19:07;;;;;;;;;;;21.10;67.80;;;;;;5113076;28;19908;-27
2023/08/01 13:21:34;;;;;;;;;;;21.10;67.80;;;;;;5094336;28;19943;-28
2023/08/01 13:23:59;;;;;;;;;;;21.20;67.50;;;;;;5112975;28;19935;-30
2023/08/01 13:26:25;;;;;;;;;;;21.40;66.30;;;;;;5112780;28;19998;-27
2023/08/01 13:28:50;;;;;;;;;;;21.50;66.60;;;;;;5112773;28;20392;-28
2023/08/01 13:31:16;;;;;;;;;;;21.60;66.50;;;;;;5112689;28;19951;-30
2023/08/01 13:33:41;;;;;;;;;;;21.70;66.40;;;;;;5112557;28;19926;-31
2023/08/01 13:36:07;;;;;;;;;;;21.90;66.10;;;;;;5112692;28;20416;-30
2023/08/01 13:38:32;;;;;;;;;;;22.10;66.20;;;;;;5112787;28;19961;-31
2023/08/01 13:40:59;;;;;;;;;;;22.40;64.80;;;;;;5112799;28;19956;-27
2023/08/01 13:43:24;;;;;;;;;;;22.50;64.40;;;;;;5112715;28;19954;-26
2023/08/01 13:45:49;;;;;;;;;;;22.40;64.30;;;;;;5112674;28;19907;-29
2023/08/01 13:48:15;;;;;;;;;;;22.30;65.10;;;;;;5112950;28;19962;-32
2023/08/01 13:50:40;;;;;;;;;;;22.10;63.90;;;;;;5112709;28;19958;-29
2023/08/01 13:53:10;;;;;;;;;;;22.10;64.30;;;;;;5112606;28;20347;-28
2023/08/01 13:55:35;;;;;;;;;;;21.90;64.00;;;;;;5112589;28;19960;-28
2023/08/01 13:58:01;;;;;;;;;;;21.80;64.10;;;;;;5112575;28;20006;-28
2023/08/01 14:00:26;;;;;;;;;;;21.50;64.10;;;;;;5112557;28;20375;-27
2023/08/01 14:02:52;;;;;;;;;;;21.40;64.10;;;;;;5112589;28;19931;-28
2023/08/01 14:05:17;;;;;;;;;;;21.20;64.40;;;;;;5112351;28;20303;-31
2023/08/01 14:07:43;;;;;;;;;;;21.10;65.30;;;;;;5112601;28;19940;-29
2023/08/01 14:10:09;;;;;;;;;;;21.10;65.60;;;;;;5112471;28;19908;-27